createdAt,value
2018-02-20T00:02:02.077Z,35.00
2018-02-20T00:04:30.296Z,36.80
2018-02-20T00:06:57.743Z,35.28
2018-02-20T00:09:25.197Z,36.55
2018-02-20T00:11:52.652Z,39.45
2018-02-20T00:14:20.100Z,36.60
2018-02-20T00:16:48.337Z,34.92
2018-02-20T00:19:15.783Z,36.58
2018-02-20T00:21:43.241Z,35.05
2018-02-20T00:24:10.695Z,38.35
2018-02-20T00:26:38.140Z,33.70
2018-02-20T00:29:06.354Z,35.45
2018-02-20T00:31:33.797Z,38.38
2018-02-20T00:34:01.277Z,38.97
2018-02-20T00:36:28.728Z,38.15
2018-02-20T00:38:56.932Z,35.95
2018-02-20T00:41:24.417Z,39.00
2018-02-20T00:43:51.857Z,37.05
2018-02-20T00:46:19.310Z,39.75
2018-02-20T00:48:46.766Z,38.53
2018-02-20T00:51:14.204Z,37.90
2018-02-20T00:53:41.660Z,36.27
2018-02-20T00:56:09.880Z,37.45
2018-02-20T00:58:37.322Z,37.53
2018-02-20T01:01:04.761Z,35.77
2018-02-20T01:03:32.220Z,34.20
2018-02-20T01:05:59.658Z,34.58
2018-02-20T01:08:27.126Z,36.97
2018-02-20T01:10:54.560Z,37.33
2018-02-20T01:13:22.012Z,36.70
2018-02-20T01:15:49.460Z,35.92
2018-02-20T01:18:16.910Z,33.40
2018-02-20T01:20:44.360Z,35.03
2018-02-20T01:23:12.587Z,34.75
2018-02-20T01:25:40.020Z,36.65
2018-02-20T01:28:07.476Z,37.53
2018-02-20T01:30:34.908Z,40.00
2018-02-20T01:33:03.127Z,36.50
2018-02-20T01:35:30.575Z,35.75
2018-02-20T01:37:58.019Z,35.53
2018-02-20T01:40:25.462Z,35.50
2018-02-20T01:42:52.914Z,36.03
2018-02-20T01:45:20.370Z,39.65
2018-02-20T01:47:47.826Z,40.53
2018-02-20T01:50:15.282Z,41.17
2018-02-20T01:52:43.496Z,43.28
2018-02-20T01:55:11.783Z,45.22
2018-02-20T01:57:39.249Z,47.58
2018-02-20T02:00:07.516Z,46.73
2018-02-20T02:07:29.009Z,33.90
2018-02-20T02:09:56.473Z,44.63
2018-02-20T02:12:23.925Z,41.50
2018-02-20T02:14:51.382Z,41.42
2018-02-20T02:17:18.823Z,31.63
2018-02-20T02:19:46.290Z,27.10
2018-02-20T02:22:14.532Z,27.10
2018-02-20T02:24:41.986Z,27.57
2018-02-20T02:27:09.427Z,24.50
2018-02-20T02:29:36.888Z,27.43
2018-02-20T02:32:04.334Z,26.80
2018-02-20T02:34:31.794Z,29.10
2018-02-20T02:36:59.999Z,24.57
2018-02-20T02:39:27.457Z,30.53
2018-02-20T02:41:55.713Z,39.58
2018-02-20T02:44:23.157Z,42.58
2018-02-20T02:46:50.611Z,43.22
2018-02-20T02:49:18.057Z,44.28
2018-02-20T02:51:45.508Z,44.63
2018-02-20T02:54:12.957Z,43.25
2018-02-20T02:56:40.437Z,43.75
2018-02-20T02:59:08.644Z,41.90
2018-02-20T03:01:36.910Z,42.30
2018-02-20T03:04:04.307Z,40.60
2018-02-20T03:06:31.776Z,42.53
2018-02-20T03:08:59.223Z,40.03
2018-02-20T03:11:26.677Z,41.70
2018-02-20T03:13:55.341Z,42.13
2018-02-20T03:16:22.821Z,38.95
2018-02-20T03:18:50.252Z,40.00
2018-02-20T03:21:18.471Z,39.03
2018-02-20T03:23:45.916Z,40.45
2018-02-20T03:26:13.374Z,42.00
2018-02-20T03:28:40.819Z,39.70
2018-02-20T03:31:08.282Z,39.25
2018-02-20T03:33:36.490Z,38.00
2018-02-20T03:36:03.946Z,41.53
2018-02-20T03:38:32.160Z,40.47
2018-02-20T03:41:00.387Z,36.25
2018-02-20T03:43:27.833Z,37.45
2018-02-20T03:45:56.044Z,39.10
2018-02-20T03:48:23.505Z,37.90
2018-02-20T03:50:51.720Z,38.03
2018-02-20T03:53:19.160Z,38.85
2018-02-20T03:55:46.643Z,38.55
2018-02-20T03:58:14.088Z,37.78
2018-02-20T04:00:41.555Z,40.03
2018-02-20T04:03:08.995Z,37.42
2018-02-20T04:05:36.452Z,37.50
2018-02-20T04:08:03.893Z,37.92
2018-02-20T04:10:31.352Z,37.07
2018-02-20T04:12:59.565Z,38.28
2018-02-20T04:15:27.011Z,37.53
2018-02-20T04:17:54.473Z,37.37
2018-02-20T04:20:21.933Z,37.97
2018-02-20T04:22:49.382Z,36.97
2018-02-20T04:25:17.595Z,36.80
2018-02-20T04:27:45.042Z,35.80
2018-02-20T04:30:12.483Z,35.78
2018-02-20T04:32:39.938Z,37.03
2018-02-20T04:35:07.382Z,35.05
2018-02-20T04:37:34.827Z,37.00
2018-02-20T04:40:02.270Z,37.30
2018-02-20T04:42:30.498Z,39.67
2018-02-20T04:44:57.950Z,36.53
2018-02-20T04:47:25.399Z,40.10
2018-02-20T04:49:52.835Z,37.00
2018-02-20T04:52:20.292Z,38.50
2018-02-20T04:54:47.730Z,36.70
2018-02-20T04:57:15.184Z,34.38
2018-02-20T04:59:42.627Z,28.50
2018-02-20T05:02:10.867Z,34.13
2018-02-20T05:04:38.303Z,36.15
2018-02-20T05:07:06.526Z,35.90
2018-02-20T05:09:33.977Z,36.17
2018-02-20T05:12:02.200Z,38.35
2018-02-20T05:14:29.639Z,39.47
2018-02-20T05:16:57.106Z,37.63
2018-02-20T05:19:24.558Z,35.83
2018-02-20T05:21:52.004Z,37.67
2018-02-20T05:24:20.228Z,35.65
2018-02-20T05:26:47.677Z,35.88
2018-02-20T05:29:15.899Z,37.73
2018-02-20T05:31:43.363Z,35.75
2018-02-20T05:34:11.572Z,36.28
2018-02-20T05:36:39.023Z,34.72
2018-02-20T05:39:06.486Z,36.28
2018-02-20T05:41:33.933Z,36.25
2018-02-20T05:44:01.374Z,38.28
2018-02-20T05:46:28.823Z,36.05
2018-02-20T05:48:56.267Z,36.30
2018-02-20T05:51:23.743Z,36.03
2018-02-20T05:53:51.188Z,37.10
2018-02-20T05:56:18.659Z,35.50
2018-02-20T05:58:46.872Z,35.22
2018-02-20T06:01:14.340Z,35.77
2018-02-20T06:03:41.780Z,34.65
2018-02-20T06:06:09.232Z,34.72
2018-02-20T06:08:37.441Z,34.20
2018-02-20T06:11:04.889Z,31.95
2018-02-20T06:13:32.330Z,35.85
2018-02-20T06:15:59.839Z,34.67
2018-02-20T06:18:27.238Z,34.33
2018-02-20T06:20:54.679Z,35.30
2018-02-20T06:23:22.128Z,34.42
2018-02-20T06:25:49.582Z,35.87
2018-02-20T06:28:17.790Z,34.40
2018-02-20T06:30:46.015Z,32.75
2018-02-20T06:33:13.459Z,32.63
2018-02-20T06:35:40.916Z,31.70
2018-02-20T06:38:09.148Z,33.22
2018-02-20T06:40:37.356Z,33.40
2018-02-20T06:43:05.572Z,32.90
2018-02-20T06:45:33.008Z,31.60
2018-02-20T06:48:00.455Z,32.38
2018-02-20T06:50:27.888Z,31.00
2018-02-20T06:52:56.103Z,32.50
2018-02-20T06:55:23.539Z,33.50
2018-02-20T06:57:52.495Z,35.97
2018-02-20T07:00:20.337Z,33.80
2018-02-20T07:02:47.800Z,35.55
2018-02-20T07:05:15.216Z,34.80
2018-02-20T07:07:42.667Z,38.03
2018-02-20T07:10:10.112Z,34.88
2018-02-20T07:12:37.571Z,34.47
2018-02-20T07:15:05.012Z,32.35
2018-02-20T07:17:32.483Z,34.63
2018-02-20T07:19:59.906Z,34.10
2018-02-20T07:22:27.352Z,32.83
2018-02-20T07:24:54.827Z,31.98
2018-02-20T07:27:22.271Z,32.42
2018-02-20T07:29:50.484Z,32.65
2018-02-20T07:32:17.948Z,33.17
2018-02-20T07:34:46.152Z,34.00
2018-02-20T07:37:14.364Z,33.92
2018-02-20T07:39:41.799Z,32.87
2018-02-20T07:42:09.239Z,34.13
2018-02-20T07:44:36.679Z,33.25
2018-02-20T07:47:04.892Z,34.78
2018-02-20T07:49:33.104Z,34.28
2018-02-20T07:52:00.549Z,35.08
2018-02-20T07:54:28.755Z,34.10
2018-02-20T07:56:56.965Z,32.40
2018-02-20T07:59:24.411Z,33.45
2018-02-20T08:01:51.855Z,31.80
2018-02-20T08:04:19.308Z,32.08
2018-02-20T08:06:47.535Z,32.30
2018-02-20T08:09:15.905Z,34.03
2018-02-20T08:11:44.103Z,30.73
2018-02-20T08:14:12.312Z,29.95
2018-02-20T08:16:39.747Z,30.05
2018-02-20T08:19:08.213Z,29.77
2018-02-20T08:21:35.661Z,28.15
2018-02-20T08:24:03.868Z,26.95
2018-02-20T08:26:32.074Z,28.30
2018-02-20T08:28:59.520Z,27.77
2018-02-20T08:31:26.947Z,26.48
2018-02-20T08:33:54.401Z,25.20
2018-02-20T08:36:22.645Z,26.15
2018-02-20T08:38:50.820Z,25.73
2018-02-20T08:41:18.252Z,24.83
2018-02-20T08:43:45.694Z,25.77
2018-02-20T08:46:13.152Z,24.77
2018-02-20T08:48:41.360Z,24.85
2018-02-20T08:51:08.797Z,23.12
2018-02-20T08:53:36.267Z,24.52
2018-02-20T08:56:03.708Z,29.55
2018-02-20T08:58:31.148Z,25.70
2018-02-20T09:00:58.593Z,23.15
2018-02-20T09:03:26.033Z,24.63
2018-02-20T09:05:53.481Z,23.02
2018-02-20T09:08:20.924Z,23.58
2018-02-20T09:10:48.355Z,22.37
2018-02-20T09:13:16.568Z,20.42
2018-02-20T09:15:44.784Z,20.00
2018-02-20T09:18:12.215Z,19.95
2018-02-20T09:20:39.661Z,18.07
2018-02-20T09:23:07.103Z,17.77
2018-02-20T09:25:35.315Z,18.00
2018-02-20T09:28:02.755Z,20.40
2018-02-20T09:30:30.209Z,19.30
2018-02-20T09:32:57.643Z,17.80
2018-02-20T09:35:25.852Z,17.12
2018-02-20T09:37:54.097Z,15.65
2018-02-20T09:40:22.276Z,15.95
2018-02-20T09:42:49.708Z,14.87
2018-02-20T09:45:17.147Z,17.40
2018-02-20T09:47:44.596Z,17.25
2018-02-20T09:50:12.808Z,18.08
2018-02-20T09:52:40.252Z,17.25
2018-02-20T09:55:07.700Z,16.60
2018-02-20T09:57:35.139Z,18.30
2018-02-20T10:00:03.345Z,16.47
2018-02-20T10:02:31.547Z,17.95
2018-02-20T10:04:58.994Z,16.92
2018-02-20T10:07:26.431Z,18.75
2018-02-20T10:09:53.880Z,17.17
2018-02-20T10:12:22.084Z,18.45
2018-02-20T10:14:49.520Z,19.10
2018-02-20T10:17:16.959Z,20.63
2018-02-20T10:19:44.416Z,19.12
2018-02-20T10:22:12.615Z,19.50
2018-02-20T10:24:40.814Z,20.00
2018-02-20T10:27:09.028Z,21.10
2018-02-20T10:29:37.223Z,18.60
2018-02-20T10:32:05.487Z,18.00
2018-02-20T10:34:32.869Z,18.58
2018-02-20T10:37:00.312Z,18.70
2018-02-20T10:39:27.763Z,17.60
2018-02-20T10:41:55.207Z,19.42
2018-02-20T10:44:22.648Z,18.23
2018-02-20T10:46:50.090Z,18.20
2018-02-20T10:49:17.536Z,18.17
2018-02-20T10:51:44.973Z,16.33
2018-02-20T10:54:12.415Z,18.65
2018-02-20T10:56:39.850Z,18.40
2018-02-20T10:59:07.291Z,17.60
2018-02-20T11:01:34.742Z,18.37
2018-02-20T11:04:02.180Z,19.95
2018-02-20T11:06:29.629Z,18.85
2018-02-20T11:08:57.059Z,19.12
2018-02-20T11:11:24.516Z,18.73
2018-02-20T11:13:52.725Z,18.37
2018-02-20T11:16:20.927Z,19.08
2018-02-20T11:18:48.355Z,19.47
2018-02-20T11:21:15.807Z,19.60
2018-02-20T11:23:43.244Z,16.67
2018-02-20T11:26:11.465Z,19.35
2018-02-20T11:28:38.912Z,21.10
2018-02-20T11:31:06.355Z,22.73
2018-02-20T11:33:33.809Z,22.73
2018-02-20T11:36:01.260Z,21.20
2018-02-20T11:38:28.696Z,22.97
2018-02-20T11:40:56.148Z,24.25
2018-02-20T11:43:23.579Z,24.65
2018-02-20T11:45:51.041Z,25.85
2018-02-20T11:48:18.476Z,25.92
2018-02-20T11:50:46.699Z,28.42
2018-02-20T11:53:14.127Z,30.08
2018-02-20T11:55:41.571Z,25.67
2018-02-20T11:58:09.003Z,26.47
2018-02-20T12:00:36.454Z,26.00
2018-02-20T12:03:03.888Z,22.93
2018-02-20T12:05:32.090Z,25.77
2018-02-20T12:08:00.302Z,25.37
2018-02-20T12:10:27.748Z,32.10
2018-02-20T12:12:55.199Z,33.35
2018-02-20T12:15:22.641Z,34.63
2018-02-20T12:17:50.865Z,34.75
2018-02-20T12:20:18.339Z,36.42
2018-02-20T12:22:46.524Z,35.55
2018-02-20T12:25:13.976Z,35.50
2018-02-20T12:27:41.428Z,35.30
2018-02-20T12:30:08.889Z,36.15
2018-02-20T12:32:36.340Z,35.72
2018-02-20T12:35:04.544Z,37.20
2018-02-20T12:37:31.987Z,29.20
2018-02-20T12:39:59.423Z,28.20
2018-02-20T14:20:39.048Z,24.00
2018-02-20T14:23:06.507Z,24.57
2018-02-20T14:25:33.940Z,36.70
2018-02-20T14:28:01.400Z,35.40
2018-02-20T14:30:28.852Z,35.83
2018-02-20T14:32:57.070Z,34.08
2018-02-20T14:35:24.523Z,34.30
2018-02-20T14:37:51.983Z,33.33
2018-02-20T14:40:19.428Z,33.03
2018-02-20T14:42:46.875Z,32.75
2018-02-20T14:45:15.092Z,32.97
2018-02-20T14:47:43.300Z,33.00
2018-02-20T14:50:10.744Z,33.35
2018-02-20T14:52:38.196Z,33.60
2018-02-20T14:55:05.638Z,33.53
2018-02-20T14:57:33.855Z,32.22
2018-02-20T15:00:01.288Z,30.98
2018-02-20T15:02:28.727Z,30.20
2018-02-20T15:04:56.163Z,32.08
2018-02-20T15:07:23.602Z,31.73
2018-02-20T15:09:51.044Z,29.10
2018-02-20T15:12:19.251Z,33.22
2018-02-20T15:14:46.692Z,29.30
2018-02-20T15:17:14.134Z,30.35
2018-02-20T15:19:41.579Z,29.15
2018-02-20T15:22:09.793Z,31.37
2018-02-20T15:24:37.242Z,30.02
2018-02-20T15:27:04.687Z,28.85
2018-02-20T15:29:32.132Z,29.58
2018-02-20T15:32:00.341Z,32.72
2018-02-20T15:34:28.543Z,31.33
2018-02-20T15:36:56.028Z,33.85
2018-02-20T15:39:24.229Z,32.40
2018-02-20T15:41:51.669Z,32.10
2018-02-20T15:44:19.111Z,33.75
2018-02-20T15:46:46.559Z,32.67
2018-02-20T15:49:14.772Z,33.42
2018-02-20T15:51:42.228Z,35.08
2018-02-20T15:54:09.680Z,32.45
2018-02-20T15:56:37.163Z,33.80
2018-02-20T15:59:05.339Z,33.40
2018-02-20T16:45:44.731Z,20.93
2018-02-20T16:48:12.184Z,30.45
2018-02-20T16:50:40.388Z,28.10
2018-02-20T16:53:08.609Z,28.33
2018-02-20T16:55:36.060Z,33.00
2018-02-20T16:58:03.516Z,31.48
2018-02-20T17:00:30.960Z,31.98
2018-02-20T17:02:58.399Z,28.15
2018-02-20T17:05:25.844Z,26.85
2018-02-20T17:07:53.308Z,28.48
2018-02-20T17:10:20.765Z,29.50
2018-02-20T17:12:48.972Z,29.37
2018-02-20T17:15:17.192Z,28.50
2018-02-20T17:17:45.412Z,28.60
2018-02-20T17:20:12.865Z,30.30
2018-02-20T17:22:41.076Z,30.20
2018-02-20T17:25:08.532Z,33.35
2018-02-20T17:27:35.967Z,30.62
2018-02-20T17:30:03.482Z,30.98
2018-02-20T17:32:30.881Z,30.05
2018-02-20T17:34:59.108Z,31.52
2018-02-20T17:37:26.560Z,31.20
2018-02-20T17:39:53.997Z,30.98
2018-02-20T17:42:21.445Z,32.03
2018-02-20T17:44:48.875Z,34.47
2018-02-20T17:47:17.103Z,33.40
2018-02-20T17:49:44.544Z,35.70
2018-02-20T17:52:11.989Z,33.80
2018-02-20T17:54:39.437Z,34.50
2018-02-20T17:57:06.892Z,37.78
2018-02-20T17:59:34.336Z,35.15
2018-02-20T18:02:01.807Z,37.38
2018-02-20T18:04:29.248Z,37.13
2018-02-20T18:06:56.706Z,38.50
2018-02-20T18:09:24.149Z,42.80
2018-02-20T18:11:52.388Z,41.42
2018-02-20T18:14:19.828Z,44.75
2018-02-20T18:16:48.065Z,46.13
2018-02-20T18:19:15.521Z,44.78
2018-02-20T18:21:42.985Z,43.10
2018-02-20T18:24:10.430Z,44.30
2018-02-20T18:26:37.906Z,46.50
2018-02-20T18:29:05.344Z,45.53
2018-02-20T18:31:33.559Z,46.03
2018-02-20T18:34:01.013Z,47.55
2018-02-20T18:36:29.235Z,48.13
2018-02-20T18:38:56.672Z,45.78
2018-02-20T18:41:24.128Z,48.15
2018-02-20T18:43:51.571Z,48.22
2018-02-20T18:46:19.016Z,50.22
2018-02-20T18:48:46.463Z,53.58
2018-02-20T18:51:13.912Z,51.93
2018-02-20T18:53:41.367Z,48.55
2018-02-20T18:56:08.812Z,50.47
2018-02-20T18:58:36.276Z,50.90
2018-02-20T19:01:03.720Z,50.15
2018-02-20T19:03:31.936Z,49.63
2018-02-20T19:05:59.384Z,51.05
2018-02-20T19:08:26.841Z,50.07
2018-02-20T19:10:55.044Z,50.30
2018-02-20T19:13:22.504Z,48.70
2018-02-20T19:15:49.952Z,49.27
2018-02-20T19:18:18.184Z,51.90
2018-02-20T19:20:45.629Z,50.22
2018-02-20T19:23:13.847Z,47.40
2018-02-20T19:25:41.300Z,49.05
2018-02-20T19:28:09.524Z,53.47
2018-02-20T19:30:36.968Z,50.20
2018-02-20T19:33:04.785Z,53.40
2018-02-20T19:35:32.237Z,53.80
2018-02-20T19:37:59.683Z,55.70
2018-02-20T19:40:27.132Z,56.78
2018-02-20T19:42:54.584Z,51.03
2018-02-20T19:45:22.033Z,50.33
2018-02-20T19:47:49.484Z,53.08
2018-02-20T19:50:16.940Z,51.83
2018-02-20T19:52:45.194Z,51.22
2018-02-20T19:55:12.645Z,51.00
2018-02-20T19:57:40.094Z,51.47
2018-02-20T20:00:08.340Z,49.95
2018-02-20T20:02:36.205Z,48.95
2018-02-20T20:05:03.648Z,53.17
2018-02-20T20:07:31.095Z,50.67
2018-02-20T20:09:58.552Z,50.38
2018-02-20T20:12:26.000Z,47.85
2018-02-20T20:14:54.220Z,47.25
2018-02-20T20:17:21.683Z,46.92
2018-02-20T20:19:49.893Z,43.50
2018-02-20T20:22:18.105Z,47.13
2018-02-20T20:24:45.564Z,46.05
2018-02-20T20:27:13.769Z,43.63
2018-02-20T20:29:42.013Z,47.00
2018-02-20T20:32:09.457Z,44.53
2018-02-20T20:34:36.916Z,45.55
2018-02-20T20:37:04.356Z,47.23
2018-02-20T20:39:31.816Z,47.80
2018-02-20T20:41:59.261Z,49.05
2018-02-20T20:44:27.480Z,46.20
2018-02-20T20:46:54.919Z,47.00
2018-02-20T20:49:22.393Z,41.00
2018-02-20T20:51:49.823Z,43.70
2018-02-20T20:54:17.284Z,46.15
2018-02-20T20:56:45.505Z,41.78
2018-02-20T20:59:12.951Z,43.87
2018-02-20T21:01:40.391Z,43.08
2018-02-20T21:04:07.853Z,46.15
2018-02-20T21:06:35.287Z,44.95
2018-02-20T21:09:02.763Z,42.75
2018-02-20T21:11:30.201Z,44.20
2018-02-20T21:13:57.652Z,44.42
2018-02-20T21:16:25.862Z,43.92
2018-02-20T21:18:53.324Z,46.70
2018-02-20T21:21:20.780Z,44.63
2018-02-20T21:23:48.207Z,45.55
2018-02-20T21:26:15.677Z,44.22
2018-02-20T21:28:43.887Z,45.22
2018-02-20T21:31:11.334Z,40.97
2018-02-20T21:33:38.779Z,42.05
2018-02-20T21:36:06.228Z,39.63
2018-02-20T21:38:33.670Z,39.37
2018-02-20T21:41:01.125Z,37.10
2018-02-20T21:43:28.563Z,36.00
2018-02-20T21:45:56.775Z,37.28
2018-02-20T21:48:24.223Z,37.10
2018-02-20T21:50:51.672Z,31.95
2018-02-20T21:53:19.115Z,31.10
2018-02-20T21:55:46.559Z,27.87
2018-02-20T21:58:14.008Z,28.30
2018-02-20T22:00:41.488Z,28.35
2018-02-20T22:03:08.903Z,31.37
2018-02-20T22:05:36.360Z,33.30
2018-02-20T22:08:03.802Z,29.63
2018-02-20T22:10:32.020Z,33.80
2018-02-20T22:12:59.478Z,32.78
2018-02-20T22:15:27.695Z,33.35
2018-02-20T22:17:55.136Z,33.78
2018-02-20T22:20:23.359Z,34.08
2018-02-20T22:22:50.803Z,36.03
2018-02-20T22:25:18.252Z,35.10
2018-02-20T22:27:45.703Z,35.25
2018-02-20T22:30:13.134Z,38.97
2018-02-20T22:32:40.583Z,34.78
2018-02-20T22:35:08.037Z,36.42
2018-02-20T22:37:36.252Z,35.50
2018-02-20T22:40:03.705Z,35.53
2018-02-20T22:42:31.932Z,35.13
2018-02-20T22:44:59.382Z,35.63
2018-02-20T22:47:27.597Z,35.58
2018-02-20T22:49:55.043Z,37.50
2018-02-20T22:52:22.497Z,39.30
2018-02-20T22:54:49.948Z,41.45
2018-02-20T22:57:17.400Z,40.75
2018-02-20T22:59:45.613Z,43.40
2018-02-20T23:02:13.063Z,43.20
2018-02-20T23:04:40.569Z,44.17
2018-02-20T23:07:07.959Z,43.87
2018-02-20T23:09:35.404Z,43.40
2018-02-20T23:12:02.852Z,44.60
2018-02-20T23:14:30.297Z,42.45
2018-02-20T23:16:58.511Z,44.85
2018-02-20T23:19:25.951Z,47.00
2018-02-20T23:21:53.407Z,45.05
2018-02-20T23:24:20.852Z,41.50
2018-02-20T23:26:48.312Z,41.30
2018-02-20T23:29:16.532Z,42.00
2018-02-20T23:31:43.987Z,45.10
2018-02-20T23:34:11.436Z,43.72
2018-02-20T23:36:38.887Z,42.47
2018-02-20T23:39:06.326Z,43.00
2018-02-20T23:41:33.780Z,42.28
2018-02-20T23:44:01.214Z,43.25
2018-02-20T23:46:28.672Z,41.58
2018-02-20T23:48:56.888Z,39.83
2018-02-20T23:51:29.939Z,43.75
2018-02-20T23:53:57.388Z,42.88
2018-02-20T23:56:24.850Z,39.75
2018-02-20T23:58:52.292Z,40.03
